sensor_id;sensor_type;location;lat;lon;timestamp;P1;durP1;ratioP1;P2;durP2;ratioP2
15816;SDS011;8009;50.070;8.232;2022-10-03T00:00:23;13.40;;;12.17;;
15816;SDS011;8009;50.070;8.232;2022-10-03T00:06:08;11.47;;;10.30;;
15816;SDS011;8009;50.070;8.232;2022-10-03T00:08:51;11.73;;;10.93;;
15816;SDS011;8009;50.070;8.232;2022-10-03T00:11:43;12.50;;;11.17;;
15816;SDS011;8009;50.070;8.232;2022-10-03T00:14:27;11.80;;;10.90;;
15816;SDS011;8009;50.070;8.232;2022-10-03T00:17:06;13.27;;;12.13;;
15816;SDS011;8009;50.070;8.232;2022-10-03T00:19:42;11.67;;;10.67;;
15816;SDS011;8009;50.070;8.232;2022-10-03T00:22:24;12.50;;;11.50;;
15816;SDS011;8009;50.070;8.232;2022-10-03T00:27:37;12.43;;;10.87;;
15816;SDS011;8009;50.070;8.232;2022-10-03T00:30:17;12.37;;;10.53;;
15816;SDS011;8009;50.070;8.232;2022-10-03T00:32:53;12.63;;;11.37;;
15816;SDS011;8009;50.070;8.232;2022-10-03T00:35:46;12.60;;;11.33;;
15816;SDS011;8009;50.070;8.232;2022-10-03T00:41:22;12.57;;;11.37;;
15816;SDS011;8009;50.070;8.232;2022-10-03T00:46:55;12.23;;;11.03;;
15816;SDS011;8009;50.070;8.232;2022-10-03T00:52:50;12.43;;;10.23;;
15816;SDS011;8009;50.070;8.232;2022-10-03T00:55:39;13.00;;;11.90;;
15816;SDS011;8009;50.070;8.232;2022-10-03T00:58:28;13.13;;;11.83;;
15816;SDS011;8009;50.070;8.232;2022-10-03T01:09:04;12.73;;;11.37;;
15816;SDS011;8009;50.070;8.232;2022-10-03T01:12:10;14.03;;;11.60;;
15816;SDS011;8009;50.070;8.232;2022-10-03T01:17:22;12.40;;;10.63;;
15816;SDS011;8009;50.070;8.232;2022-10-03T01:20:09;13.40;;;11.23;;
15816;SDS011;8009;50.070;8.232;2022-10-03T01:22:54;11.70;;;10.50;;
15816;SDS011;8009;50.070;8.232;2022-10-03T01:25:45;11.83;;;10.63;;
15816;SDS011;8009;50.070;8.232;2022-10-03T01:31:29;11.90;;;10.70;;
15816;SDS011;8009;50.070;8.232;2022-10-03T01:34:06;12.07;;;10.93;;
15816;SDS011;8009;50.070;8.232;2022-10-03T01:36:41;11.77;;;10.77;;
15816;SDS011;8009;50.070;8.232;2022-10-03T01:39:20;11.63;;;10.63;;
15816;SDS011;8009;50.070;8.232;2022-10-03T01:52:14;10.40;;;9.27;;
15816;SDS011;8009;50.070;8.232;2022-10-03T02:02:44;10.77;;;9.33;;
15816;SDS011;8009;50.070;8.232;2022-10-03T02:05:18;10.97;;;8.63;;
15816;SDS011;8009;50.070;8.232;2022-10-03T02:07:59;10.43;;;9.47;;
15816;SDS011;8009;50.070;8.232;2022-10-03T02:10:37;16.83;;;9.83;;
15816;SDS011;8009;50.070;8.232;2022-10-03T02:13:13;10.40;;;8.23;;
15816;SDS011;8009;50.070;8.232;2022-10-03T02:15:54;10.93;;;9.10;;
15816;SDS011;8009;50.070;8.232;2022-10-03T02:18:33;10.80;;;9.73;;
15816;SDS011;8009;50.070;8.232;2022-10-03T02:23:49;11.27;;;8.87;;
15816;SDS011;8009;50.070;8.232;2022-10-03T02:29:20;13.83;;;11.27;;
15816;SDS011;8009;50.070;8.232;2022-10-03T02:32:09;13.47;;;12.07;;
15816;SDS011;8009;50.070;8.232;2022-10-03T02:37:48;11.30;;;10.00;;
15816;SDS011;8009;50.070;8.232;2022-10-03T02:40:35;10.80;;;9.33;;
15816;SDS011;8009;50.070;8.232;2022-10-03T02:43:29;11.83;;;10.50;;
15816;SDS011;8009;50.070;8.232;2022-10-03T02:46:25;10.83;;;9.93;;
15816;SDS011;8009;50.070;8.232;2022-10-03T02:49:25;12.90;;;10.90;;
15816;SDS011;8009;50.070;8.232;2022-10-03T02:55:23;10.53;;;9.57;;
15816;SDS011;8009;50.070;8.232;2022-10-03T02:58:19;12.67;;;11.43;;
15816;SDS011;8009;50.070;8.232;2022-10-03T03:01:18;11.90;;;10.73;;
15816;SDS011;8009;50.070;8.232;2022-10-03T03:07:29;11.63;;;10.63;;
15816;SDS011;8009;50.070;8.232;2022-10-03T03:10:20;10.63;;;9.67;;
15816;SDS011;8009;50.070;8.232;2022-10-03T03:13:12;12.97;;;10.87;;
15816;SDS011;8009;50.070;8.232;2022-10-03T03:16:13;10.17;;;9.20;;
15816;SDS011;8009;50.070;8.232;2022-10-03T03:19:04;15.30;;;13.82;;
15816;SDS011;8009;50.070;8.232;2022-10-03T03:21:43;11.77;;;10.83;;
15816;SDS011;8009;50.070;8.232;2022-10-03T03:24:31;11.60;;;10.60;;
15816;SDS011;8009;50.070;8.232;2022-10-03T03:30:15;11.33;;;10.33;;
15816;SDS011;8009;50.070;8.232;2022-10-03T03:32:48;11.97;;;10.77;;
15816;SDS011;8009;50.070;8.232;2022-10-03T03:35:29;11.60;;;10.30;;
15816;SDS011;8009;50.070;8.232;2022-10-03T03:38:16;12.55;;;11.30;;
15816;SDS011;8009;50.070;8.232;2022-10-03T03:40:58;10.87;;;9.77;;
15816;SDS011;8009;50.070;8.232;2022-10-03T03:46:50;11.53;;;10.23;;
15816;SDS011;8009;50.070;8.232;2022-10-03T04:00:34;10.40;;;9.40;;
15816;SDS011;8009;50.070;8.232;2022-10-03T04:11:00;12.87;;;11.23;;
15816;SDS011;8009;50.070;8.232;2022-10-03T04:18:53;13.20;;;11.90;;
15816;SDS011;8009;50.070;8.232;2022-10-03T04:24:28;10.03;;;9.13;;
15816;SDS011;8009;50.070;8.232;2022-10-03T04:27:16;12.00;;;10.80;;
15816;SDS011;8009;50.070;8.232;2022-10-03T04:30:01;13.40;;;10.57;;
15816;SDS011;8009;50.070;8.232;2022-10-03T04:32:54;13.17;;;11.80;;
15816;SDS011;8009;50.070;8.232;2022-10-03T04:35:37;15.77;;;11.33;;
15816;SDS011;8009;50.070;8.232;2022-10-03T04:38:38;13.53;;;12.17;;
15816;SDS011;8009;50.070;8.232;2022-10-03T04:41:17;13.53;;;12.13;;
15816;SDS011;8009;50.070;8.232;2022-10-03T04:43:57;12.10;;;10.23;;
15816;SDS011;8009;50.070;8.232;2022-10-03T04:46:37;12.07;;;10.97;;
15816;SDS011;8009;50.070;8.232;2022-10-03T04:49:11;13.17;;;11.87;;
15816;SDS011;8009;50.070;8.232;2022-10-03T04:51:48;12.73;;;11.33;;
15816;SDS011;8009;50.070;8.232;2022-10-03T05:02:16;13.93;;;12.63;;
15816;SDS011;8009;50.070;8.232;2022-10-03T05:04:57;14.60;;;12.07;;
15816;SDS011;8009;50.070;8.232;2022-10-03T05:07:37;11.87;;;10.73;;
15816;SDS011;8009;50.070;8.232;2022-10-03T05:10:24;13.80;;;12.30;;
15816;SDS011;8009;50.070;8.232;2022-10-03T05:13:01;14.97;;;12.47;;
15816;SDS011;8009;50.070;8.232;2022-10-03T05:15:38;15.00;;;11.67;;
15816;SDS011;8009;50.070;8.232;2022-10-03T05:18:18;15.00;;;13.63;;
15816;SDS011;8009;50.070;8.232;2022-10-03T05:20:53;13.43;;;11.93;;
15816;SDS011;8009;50.070;8.232;2022-10-03T05:26:14;15.83;;;12.67;;
15816;SDS011;8009;50.070;8.232;2022-10-03T05:28:51;13.97;;;12.57;;
15816;SDS011;8009;50.070;8.232;2022-10-03T05:31:28;15.25;;;13.70;;
15816;SDS011;8009;50.070;8.232;2022-10-03T05:34:10;14.60;;;12.00;;
15816;SDS011;8009;50.070;8.232;2022-10-03T05:36:53;16.70;;;12.80;;
15816;SDS011;8009;50.070;8.232;2022-10-03T05:39:37;16.23;;;12.27;;
15816;SDS011;8009;50.070;8.232;2022-10-03T05:42:17;13.60;;;12.30;;
15816;SDS011;8009;50.070;8.232;2022-10-03T05:45:03;13.07;;;11.77;;
15816;SDS011;8009;50.070;8.232;2022-10-03T05:47:48;14.57;;;11.77;;
15816;SDS011;8009;50.070;8.232;2022-10-03T05:56:22;14.83;;;13.43;;
15816;SDS011;8009;50.070;8.232;2022-10-03T06:02:24;13.00;;;11.63;;
15816;SDS011;8009;50.070;8.232;2022-10-03T06:05:23;12.13;;;11.00;;
15816;SDS011;8009;50.070;8.232;2022-10-03T06:11:25;12.67;;;10.47;;
15816;SDS011;8009;50.070;8.232;2022-10-03T06:14:10;11.60;;;10.53;;
15816;SDS011;8009;50.070;8.232;2022-10-03T06:19:38;10.83;;;9.93;;
15816;SDS011;8009;50.070;8.232;2022-10-03T06:25:18;12.37;;;11.17;;
15816;SDS011;8009;50.070;8.232;2022-10-03T06:34:35;12.47;;;10.47;;
15816;SDS011;8009;50.070;8.232;2022-10-03T06:37:27;12.83;;;9.87;;
15816;SDS011;8009;50.070;8.232;2022-10-03T06:46:36;10.00;;;8.93;;
15816;SDS011;8009;50.070;8.232;2022-10-03T06:49:25;10.67;;;9.73;;
15816;SDS011;8009;50.070;8.232;2022-10-03T06:55:12;10.20;;;9.30;;
15816;SDS011;8009;50.070;8.232;2022-10-03T06:58:12;13.90;;;10.63;;
15816;SDS011;8009;50.070;8.232;2022-10-03T07:03:59;11.30;;;10.50;;
15816;SDS011;8009;50.070;8.232;2022-10-03T07:09:32;10.53;;;8.73;;
15816;SDS011;8009;50.070;8.232;2022-10-03T07:25:21;12.23;;;10.93;;
15816;SDS011;8009;50.070;8.232;2022-10-03T07:41:15;11.80;;;10.90;;
15816;SDS011;8009;50.070;8.232;2022-10-03T07:44:05;11.03;;;10.13;;
15816;SDS011;8009;50.070;8.232;2022-10-03T07:47:00;14.95;;;13.52;;
15816;SDS011;8009;50.070;8.232;2022-10-03T07:50:00;11.40;;;10.50;;
15816;SDS011;8009;50.070;8.232;2022-10-03T07:52:55;11.33;;;10.37;;
15816;SDS011;8009;50.070;8.232;2022-10-03T07:55:50;11.37;;;10.47;;
15816;SDS011;8009;50.070;8.232;2022-10-03T07:58:37;11.40;;;10.47;;
15816;SDS011;8009;50.070;8.232;2022-10-03T08:01:22;11.83;;;10.83;;
15816;SDS011;8009;50.070;8.232;2022-10-03T08:04:04;11.30;;;10.40;;
15816;SDS011;8009;50.070;8.232;2022-10-03T08:06:59;12.27;;;11.17;;
15816;SDS011;8009;50.070;8.232;2022-10-03T08:09:46;10.27;;;9.57;;
15816;SDS011;8009;50.070;8.232;2022-10-03T08:12:37;12.17;;;11.17;;
15816;SDS011;8009;50.070;8.232;2022-10-03T08:15:26;11.90;;;10.80;;
15816;SDS011;8009;50.070;8.232;2022-10-03T08:21:07;12.60;;;11.43;;
15816;SDS011;8009;50.070;8.232;2022-10-03T08:23:43;10.87;;;9.93;;
15816;SDS011;8009;50.070;8.232;2022-10-03T08:26:50;10.50;;;9.50;;
15816;SDS011;8009;50.070;8.232;2022-10-03T08:32:35;11.00;;;10.00;;
15816;SDS011;8009;50.070;8.232;2022-10-03T08:35:18;13.23;;;10.80;;
15816;SDS011;8009;50.070;8.232;2022-10-03T08:38:06;10.83;;;10.03;;
15816;SDS011;8009;50.070;8.232;2022-10-03T08:47:24;11.83;;;10.93;;
15816;SDS011;8009;50.070;8.232;2022-10-03T08:53:15;11.00;;;10.20;;
15816;SDS011;8009;50.070;8.232;2022-10-03T08:56:05;12.70;;;11.60;;
15816;SDS011;8009;50.070;8.232;2022-10-03T09:07:43;11.80;;;10.70;;
15816;SDS011;8009;50.070;8.232;2022-10-03T09:10:33;11.63;;;10.43;;
15816;SDS011;8009;50.070;8.232;2022-10-03T09:13:21;19.23;;;17.30;;
15816;SDS011;8009;50.070;8.232;2022-10-03T09:19:04;13.83;;;12.77;;
15816;SDS011;8009;50.070;8.232;2022-10-03T09:21:59;13.07;;;11.87;;
15816;SDS011;8009;50.070;8.232;2022-10-03T09:24:58;12.27;;;10.17;;
15816;SDS011;8009;50.070;8.232;2022-10-03T09:30:47;12.90;;;11.30;;
15816;SDS011;8009;50.070;8.232;2022-10-03T09:36:51;12.53;;;11.50;;
15816;SDS011;8009;50.070;8.232;2022-10-03T09:40:01;10.77;;;9.63;;
15816;SDS011;8009;50.070;8.232;2022-10-03T09:42:57;10.53;;;9.60;;
15816;SDS011;8009;50.070;8.232;2022-10-03T09:45:57;11.63;;;10.70;;
15816;SDS011;8009;50.070;8.232;2022-10-03T09:52:00;10.57;;;9.30;;
15816;SDS011;8009;50.070;8.232;2022-10-03T09:54:55;9.40;;;8.80;;
15816;SDS011;8009;50.070;8.232;2022-10-03T10:00:38;10.77;;;9.75;;
15816;SDS011;8009;50.070;8.232;2022-10-03T10:06:36;9.47;;;8.67;;
15816;SDS011;8009;50.070;8.232;2022-10-03T10:18:32;9.90;;;8.97;;
15816;SDS011;8009;50.070;8.232;2022-10-03T10:30:22;10.33;;;9.37;;
15816;SDS011;8009;50.070;8.232;2022-10-03T10:33:14;9.40;;;8.53;;
15816;SDS011;8009;50.070;8.232;2022-10-03T10:36:32;10.53;;;8.53;;
15816;SDS011;8009;50.070;8.232;2022-10-03T10:42:29;8.13;;;7.40;;
15816;SDS011;8009;50.070;8.232;2022-10-03T10:51:35;7.10;;;6.60;;
15816;SDS011;8009;50.070;8.232;2022-10-03T10:54:36;8.67;;;7.97;;
15816;SDS011;8009;50.070;8.232;2022-10-03T10:57:37;8.57;;;7.93;;
15816;SDS011;8009;50.070;8.232;2022-10-03T11:00:32;8.97;;;8.17;;
15816;SDS011;8009;50.070;8.232;2022-10-03T11:09:26;8.67;;;7.97;;
15816;SDS011;8009;50.070;8.232;2022-10-03T11:12:16;8.83;;;8.13;;
15816;SDS011;8009;50.070;8.232;2022-10-03T11:21:23;8.27;;;7.50;;
15816;SDS011;8009;50.070;8.232;2022-10-03T11:50:25;8.70;;;8.00;;
15816;SDS011;8009;50.070;8.232;2022-10-03T12:18:52;7.23;;;6.63;;
15816;SDS011;8009;50.070;8.232;2022-10-03T12:29:15;7.63;;;7.03;;
15816;SDS011;8009;50.070;8.232;2022-10-03T12:31:48;6.80;;;6.27;;
15816;SDS011;8009;50.070;8.232;2022-10-03T12:34:31;8.27;;;7.57;;
15816;SDS011;8009;50.070;8.232;2022-10-03T12:39:43;13.20;;;11.90;;
15816;SDS011;8009;50.070;8.232;2022-10-03T12:42:25;7.03;;;6.50;;
15816;SDS011;8009;50.070;8.232;2022-10-03T12:47:36;6.30;;;5.80;;
15816;SDS011;8009;50.070;8.232;2022-10-03T12:50:26;8.07;;;5.77;;
15816;SDS011;8009;50.070;8.232;2022-10-03T12:53:11;6.65;;;6.15;;
15816;SDS011;8009;50.070;8.232;2022-10-03T12:55:54;6.70;;;6.17;;
15816;SDS011;8009;50.070;8.232;2022-10-03T12:58:32;7.23;;;6.83;;
15816;SDS011;8009;50.070;8.232;2022-10-03T13:03:48;7.90;;;7.30;;
15816;SDS011;8009;50.070;8.232;2022-10-03T13:06:26;7.10;;;6.60;;
15816;SDS011;8009;50.070;8.232;2022-10-03T13:09:24;6.57;;;6.07;;
15816;SDS011;8009;50.070;8.232;2022-10-03T13:12:15;7.00;;;6.57;;
15816;SDS011;8009;50.070;8.232;2022-10-03T13:18:19;6.73;;;6.27;;
15816;SDS011;8009;50.070;8.232;2022-10-03T13:21:08;6.60;;;6.10;;
15816;SDS011;8009;50.070;8.232;2022-10-03T13:23:46;6.43;;;5.73;;
15816;SDS011;8009;50.070;8.232;2022-10-03T13:26:22;6.93;;;6.37;;
15816;SDS011;8009;50.070;8.232;2022-10-03T13:31:54;7.50;;;7.00;;
15816;SDS011;8009;50.070;8.232;2022-10-03T13:34:39;7.00;;;6.43;;
15816;SDS011;8009;50.070;8.232;2022-10-03T13:37:57;6.37;;;5.97;;
15816;SDS011;8009;50.070;8.232;2022-10-03T13:40:37;7.28;;;6.68;;
15816;SDS011;8009;50.070;8.232;2022-10-03T13:43:12;6.50;;;6.10;;
15816;SDS011;8009;50.070;8.232;2022-10-03T13:45:45;7.13;;;6.43;;
15816;SDS011;8009;50.070;8.232;2022-10-03T13:48:21;6.47;;;6.00;;
15816;SDS011;8009;50.070;8.232;2022-10-03T13:50:54;7.60;;;6.93;;
15816;SDS011;8009;50.070;8.232;2022-10-03T13:53:40;6.50;;;5.83;;
15816;SDS011;8009;50.070;8.232;2022-10-03T13:56:28;5.50;;;5.00;;
15816;SDS011;8009;50.070;8.232;2022-10-03T13:59:08;6.00;;;5.47;;
15816;SDS011;8009;50.070;8.232;2022-10-03T14:01:52;6.60;;;6.10;;
15816;SDS011;8009;50.070;8.232;2022-10-03T14:07:28;5.93;;;5.43;;
15816;SDS011;8009;50.070;8.232;2022-10-03T14:10:09;5.90;;;5.50;;
15816;SDS011;8009;50.070;8.232;2022-10-03T14:12:54;7.13;;;6.47;;
15816;SDS011;8009;50.070;8.232;2022-10-03T14:15:39;7.00;;;6.30;;
15816;SDS011;8009;50.070;8.232;2022-10-03T14:18:21;6.43;;;5.93;;
15816;SDS011;8009;50.070;8.232;2022-10-03T14:24:26;6.50;;;6.10;;
15816;SDS011;8009;50.070;8.232;2022-10-03T14:27:07;7.30;;;6.80;;
15816;SDS011;8009;50.070;8.232;2022-10-03T14:29:53;7.03;;;6.43;;
15816;SDS011;8009;50.070;8.232;2022-10-03T14:32:32;7.63;;;6.53;;
15816;SDS011;8009;50.070;8.232;2022-10-03T14:35:07;6.90;;;6.47;;
15816;SDS011;8009;50.070;8.232;2022-10-03T14:37:47;7.07;;;6.43;;
15816;SDS011;8009;50.070;8.232;2022-10-03T14:40:23;7.33;;;6.83;;
15816;SDS011;8009;50.070;8.232;2022-10-03T14:43:10;6.63;;;5.73;;
15816;SDS011;8009;50.070;8.232;2022-10-03T14:45:56;6.90;;;6.40;;
15816;SDS011;8009;50.070;8.232;2022-10-03T14:48:27;6.97;;;6.47;;
15816;SDS011;8009;50.070;8.232;2022-10-03T14:51:05;7.33;;;6.83;;
15816;SDS011;8009;50.070;8.232;2022-10-03T14:53:44;11.37;;;10.10;;
15816;SDS011;8009;50.070;8.232;2022-10-03T14:56:14;34.83;;;28.00;;
15816;SDS011;8009;50.070;8.232;2022-10-03T14:58:49;11.33;;;10.33;;
15816;SDS011;8009;50.070;8.232;2022-10-03T15:01:22;8.47;;;7.67;;
15816;SDS011;8009;50.070;8.232;2022-10-03T15:04:02;8.63;;;7.67;;
15816;SDS011;8009;50.070;8.232;2022-10-03T15:06:35;8.13;;;7.43;;
15816;SDS011;8009;50.070;8.232;2022-10-03T15:09:19;9.27;;;6.83;;
15816;SDS011;8009;50.070;8.232;2022-10-03T15:11:51;8.80;;;8.20;;
15816;SDS011;8009;50.070;8.232;2022-10-03T15:14:24;7.53;;;6.93;;
15816;SDS011;8009;50.070;8.232;2022-10-03T15:19:34;7.53;;;6.80;;
15816;SDS011;8009;50.070;8.232;2022-10-03T15:22:11;8.43;;;7.73;;
15816;SDS011;8009;50.070;8.232;2022-10-03T15:24:49;7.33;;;6.83;;
15816;SDS011;8009;50.070;8.232;2022-10-03T15:27:21;8.83;;;8.23;;
15816;SDS011;8009;50.070;8.232;2022-10-03T15:29:52;9.40;;;8.70;;
15816;SDS011;8009;50.070;8.232;2022-10-03T15:32:23;8.15;;;7.55;;
15816;SDS011;8009;50.070;8.232;2022-10-03T15:34:58;7.67;;;6.90;;
15816;SDS011;8009;50.070;8.232;2022-10-03T15:37:29;8.57;;;7.97;;
15816;SDS011;8009;50.070;8.232;2022-10-03T15:40:02;7.90;;;7.40;;
15816;SDS011;8009;50.070;8.232;2022-10-03T15:42:42;7.77;;;7.17;;
15816;SDS011;8009;50.070;8.232;2022-10-03T15:45:19;7.93;;;7.33;;
15816;SDS011;8009;50.070;8.232;2022-10-03T15:47:53;7.97;;;7.43;;
15816;SDS011;8009;50.070;8.232;2022-10-03T15:50:28;9.17;;;8.37;;
15816;SDS011;8009;50.070;8.232;2022-10-03T15:52:59;7.75;;;7.00;;
15816;SDS011;8009;50.070;8.232;2022-10-03T15:55:35;7.17;;;6.57;;
15816;SDS011;8009;50.070;8.232;2022-10-03T15:58:11;9.67;;;7.20;;
15816;SDS011;8009;50.070;8.232;2022-10-03T16:00:45;8.20;;;7.60;;
15816;SDS011;8009;50.070;8.232;2022-10-03T16:03:22;8.97;;;8.30;;
15816;SDS011;8009;50.070;8.232;2022-10-03T16:06:01;8.90;;;8.37;;
15816;SDS011;8009;50.070;8.232;2022-10-03T16:08:39;8.50;;;7.67;;
15816;SDS011;8009;50.070;8.232;2022-10-03T16:11:20;7.80;;;7.10;;
15816;SDS011;8009;50.070;8.232;2022-10-03T16:13:54;8.73;;;7.90;;
15816;SDS011;8009;50.070;8.232;2022-10-03T16:16:35;8.53;;;7.83;;
15816;SDS011;8009;50.070;8.232;2022-10-03T16:19:19;7.50;;;6.90;;
15816;SDS011;8009;50.070;8.232;2022-10-03T16:21:56;8.07;;;7.47;;
15816;SDS011;8009;50.070;8.232;2022-10-03T16:24:34;9.40;;;8.77;;
15816;SDS011;8009;50.070;8.232;2022-10-03T16:27:11;9.97;;;9.07;;
15816;SDS011;8009;50.070;8.232;2022-10-03T16:29:43;9.53;;;8.67;;
15816;SDS011;8009;50.070;8.232;2022-10-03T16:32:20;8.73;;;7.93;;
15816;SDS011;8009;50.070;8.232;2022-10-03T16:34:51;10.07;;;9.27;;
15816;SDS011;8009;50.070;8.232;2022-10-03T16:37:27;9.30;;;8.30;;
15816;SDS011;8009;50.070;8.232;2022-10-03T16:39:57;9.77;;;8.97;;
15816;SDS011;8009;50.070;8.232;2022-10-03T16:42:34;9.97;;;9.27;;
15816;SDS011;8009;50.070;8.232;2022-10-03T16:45:12;10.57;;;9.77;;
15816;SDS011;8009;50.070;8.232;2022-10-03T16:47:47;9.03;;;8.43;;
15816;SDS011;8009;50.070;8.232;2022-10-03T16:50:39;8.13;;;7.57;;
15816;SDS011;8009;50.070;8.232;2022-10-03T16:53:12;10.33;;;9.50;;
15816;SDS011;8009;50.070;8.232;2022-10-03T16:55:44;8.70;;;8.10;;
15816;SDS011;8009;50.070;8.232;2022-10-03T16:58:19;10.63;;;9.67;;
15816;SDS011;8009;50.070;8.232;2022-10-03T17:00:55;16.15;;;14.93;;
15816;SDS011;8009;50.070;8.232;2022-10-03T17:03:28;15.37;;;13.83;;
15816;SDS011;8009;50.070;8.232;2022-10-03T17:06:04;9.63;;;8.90;;
15816;SDS011;8009;50.070;8.232;2022-10-03T17:08:40;9.80;;;8.80;;
15816;SDS011;8009;50.070;8.232;2022-10-03T17:11:11;10.27;;;9.43;;
15816;SDS011;8009;50.070;8.232;2022-10-03T17:13:44;9.63;;;8.83;;
15816;SDS011;8009;50.070;8.232;2022-10-03T17:16:18;11.50;;;10.57;;
15816;SDS011;8009;50.070;8.232;2022-10-03T17:19:01;10.73;;;9.97;;
15816;SDS011;8009;50.070;8.232;2022-10-03T17:21:43;9.57;;;8.87;;
15816;SDS011;8009;50.070;8.232;2022-10-03T17:24:23;11.83;;;10.63;;
15816;SDS011;8009;50.070;8.232;2022-10-03T17:27:01;11.50;;;8.40;;
15816;SDS011;8009;50.070;8.232;2022-10-03T17:29:35;10.40;;;9.33;;
15816;SDS011;8009;50.070;8.232;2022-10-03T17:32:11;9.57;;;8.57;;
15816;SDS011;8009;50.070;8.232;2022-10-03T17:37:28;8.93;;;8.23;;
15816;SDS011;8009;50.070;8.232;2022-10-03T17:40:19;9.73;;;9.10;;
15816;SDS011;8009;50.070;8.232;2022-10-03T17:42:51;8.20;;;7.47;;
15816;SDS011;8009;50.070;8.232;2022-10-03T17:45:30;10.68;;;9.88;;
15816;SDS011;8009;50.070;8.232;2022-10-03T17:48:03;10.63;;;9.63;;
15816;SDS011;8009;50.070;8.232;2022-10-03T17:50:42;9.77;;;9.07;;
15816;SDS011;8009;50.070;8.232;2022-10-03T17:53:20;8.93;;;8.30;;
15816;SDS011;8009;50.070;8.232;2022-10-03T17:55:56;9.07;;;8.37;;
15816;SDS011;8009;50.070;8.232;2022-10-03T17:58:27;10.00;;;9.20;;
15816;SDS011;8009;50.070;8.232;2022-10-03T18:01:05;9.87;;;8.67;;
15816;SDS011;8009;50.070;8.232;2022-10-03T18:03:39;9.63;;;8.93;;
15816;SDS011;8009;50.070;8.232;2022-10-03T18:09:23;9.90;;;9.20;;
15816;SDS011;8009;50.070;8.232;2022-10-03T18:12:01;10.57;;;9.67;;
15816;SDS011;8009;50.070;8.232;2022-10-03T18:14:44;10.20;;;9.40;;
15816;SDS011;8009;50.070;8.232;2022-10-03T18:17:23;10.63;;;9.73;;
15816;SDS011;8009;50.070;8.232;2022-10-03T18:20:18;9.67;;;8.83;;
15816;SDS011;8009;50.070;8.232;2022-10-03T18:22:57;9.47;;;8.77;;
15816;SDS011;8009;50.070;8.232;2022-10-03T18:25:29;9.93;;;9.17;;
15816;SDS011;8009;50.070;8.232;2022-10-03T18:28:30;7.73;;;7.20;;
15816;SDS011;8009;50.070;8.232;2022-10-03T18:31:01;9.33;;;8.73;;
15816;SDS011;8009;50.070;8.232;2022-10-03T18:33:34;8.60;;;7.90;;
15816;SDS011;8009;50.070;8.232;2022-10-03T18:36:16;9.17;;;8.47;;
15816;SDS011;8009;50.070;8.232;2022-10-03T18:38:48;9.70;;;8.73;;
15816;SDS011;8009;50.070;8.232;2022-10-03T18:41:20;8.87;;;8.27;;
15816;SDS011;8009;50.070;8.232;2022-10-03T18:43:53;8.03;;;7.43;;
15816;SDS011;8009;50.070;8.232;2022-10-03T18:46:24;8.23;;;7.60;;
15816;SDS011;8009;50.070;8.232;2022-10-03T18:48:56;8.63;;;7.80;;
15816;SDS011;8009;50.070;8.232;2022-10-03T18:51:33;9.37;;;8.43;;
15816;SDS011;8009;50.070;8.232;2022-10-03T18:54:06;8.47;;;7.77;;
15816;SDS011;8009;50.070;8.232;2022-10-03T18:56:45;9.03;;;8.43;;
15816;SDS011;8009;50.070;8.232;2022-10-03T18:59:34;9.13;;;8.43;;
15816;SDS011;8009;50.070;8.232;2022-10-03T19:02:14;8.40;;;7.63;;
15816;SDS011;8009;50.070;8.232;2022-10-03T19:04:49;7.57;;;6.90;;
15816;SDS011;8009;50.070;8.232;2022-10-03T19:07:20;9.13;;;8.33;;
15816;SDS011;8009;50.070;8.232;2022-10-03T19:12:47;12.30;;;9.68;;
15816;SDS011;8009;50.070;8.232;2022-10-03T19:15:26;9.77;;;8.83;;
15816;SDS011;8009;50.070;8.232;2022-10-03T19:18:08;9.53;;;8.77;;
15816;SDS011;8009;50.070;8.232;2022-10-03T19:20:47;8.77;;;7.97;;
15816;SDS011;8009;50.070;8.232;2022-10-03T19:23:19;9.27;;;8.33;;
15816;SDS011;8009;50.070;8.232;2022-10-03T19:25:52;8.93;;;8.07;;
15816;SDS011;8009;50.070;8.232;2022-10-03T19:28:24;7.87;;;7.07;;
15816;SDS011;8009;50.070;8.232;2022-10-03T19:31:01;8.20;;;7.40;;
15816;SDS011;8009;50.070;8.232;2022-10-03T19:33:33;7.93;;;7.33;;
15816;SDS011;8009;50.070;8.232;2022-10-03T19:36:11;9.00;;;8.30;;
15816;SDS011;8009;50.070;8.232;2022-10-03T19:38:43;8.07;;;7.53;;
15816;SDS011;8009;50.070;8.232;2022-10-03T19:41:23;8.50;;;7.90;;
15816;SDS011;8009;50.070;8.232;2022-10-03T19:43:56;9.83;;;9.03;;
15816;SDS011;8009;50.070;8.232;2022-10-03T19:46:46;8.90;;;8.30;;
15816;SDS011;8009;50.070;8.232;2022-10-03T19:49:24;9.17;;;8.37;;
15816;SDS011;8009;50.070;8.232;2022-10-03T19:52:14;8.83;;;8.17;;
15816;SDS011;8009;50.070;8.232;2022-10-03T19:54:48;8.67;;;8.07;;
15816;SDS011;8009;50.070;8.232;2022-10-03T19:57:20;8.53;;;7.93;;
15816;SDS011;8009;50.070;8.232;2022-10-03T19:59:54;8.67;;;7.97;;
15816;SDS011;8009;50.070;8.232;2022-10-03T20:02:28;9.23;;;8.53;;
15816;SDS011;8009;50.070;8.232;2022-10-03T20:04:58;8.90;;;8.10;;
15816;SDS011;8009;50.070;8.232;2022-10-03T20:07:34;8.00;;;7.30;;
15816;SDS011;8009;50.070;8.232;2022-10-03T20:13:11;8.97;;;8.03;;
15816;SDS011;8009;50.070;8.232;2022-10-03T20:15:40;8.60;;;7.83;;
15816;SDS011;8009;50.070;8.232;2022-10-03T20:18:16;10.73;;;9.83;;
15816;SDS011;8009;50.070;8.232;2022-10-03T20:20:52;7.73;;;7.13;;
15816;SDS011;8009;50.070;8.232;2022-10-03T20:23:23;8.77;;;8.07;;
15816;SDS011;8009;50.070;8.232;2022-10-03T20:25:55;8.10;;;7.23;;
15816;SDS011;8009;50.070;8.232;2022-10-03T20:28:32;8.90;;;8.20;;
15816;SDS011;8009;50.070;8.232;2022-10-03T20:31:17;7.83;;;7.13;;
15816;SDS011;8009;50.070;8.232;2022-10-03T20:33:50;8.60;;;8.00;;
15816;SDS011;8009;50.070;8.232;2022-10-03T20:36:20;7.47;;;6.73;;
15816;SDS011;8009;50.070;8.232;2022-10-03T20:39:00;8.97;;;6.97;;
15816;SDS011;8009;50.070;8.232;2022-10-03T20:41:35;8.40;;;7.73;;
15816;SDS011;8009;50.070;8.232;2022-10-03T20:44:13;8.73;;;8.00;;
15816;SDS011;8009;50.070;8.232;2022-10-03T20:46:47;7.93;;;7.40;;
15816;SDS011;8009;50.070;8.232;2022-10-03T20:49:29;8.00;;;7.40;;
15816;SDS011;8009;50.070;8.232;2022-10-03T20:51:59;9.23;;;7.73;;
15816;SDS011;8009;50.070;8.232;2022-10-03T20:54:34;8.07;;;7.27;;
15816;SDS011;8009;50.070;8.232;2022-10-03T20:57:13;7.20;;;6.50;;
15816;SDS011;8009;50.070;8.232;2022-10-03T20:59:47;8.57;;;7.83;;
15816;SDS011;8009;50.070;8.232;2022-10-03T21:02:22;7.70;;;7.00;;
15816;SDS011;8009;50.070;8.232;2022-10-03T21:04:57;7.63;;;6.93;;
15816;SDS011;8009;50.070;8.232;2022-10-03T21:07:30;7.43;;;6.90;;
15816;SDS011;8009;50.070;8.232;2022-10-03T21:10:13;7.80;;;7.07;;
15816;SDS011;8009;50.070;8.232;2022-10-03T21:12:47;6.93;;;6.40;;
15816;SDS011;8009;50.070;8.232;2022-10-03T21:15:21;8.53;;;8.00;;
15816;SDS011;8009;50.070;8.232;2022-10-03T21:17:56;7.77;;;7.10;;
15816;SDS011;8009;50.070;8.232;2022-10-03T21:20:30;7.70;;;7.00;;
15816;SDS011;8009;50.070;8.232;2022-10-03T21:23:02;8.60;;;7.73;;
15816;SDS011;8009;50.070;8.232;2022-10-03T21:25:34;8.43;;;7.63;;
15816;SDS011;8009;50.070;8.232;2022-10-03T21:28:04;8.10;;;7.30;;
15816;SDS011;8009;50.070;8.232;2022-10-03T21:30:53;9.27;;;6.53;;
15816;SDS011;8009;50.070;8.232;2022-10-03T21:33:33;6.63;;;6.00;;
15816;SDS011;8009;50.070;8.232;2022-10-03T21:36:18;7.80;;;7.00;;
15816;SDS011;8009;50.070;8.232;2022-10-03T21:38:52;7.43;;;5.93;;
15816;SDS011;8009;50.070;8.232;2022-10-03T21:41:32;7.47;;;6.87;;
15816;SDS011;8009;50.070;8.232;2022-10-03T21:44:10;7.33;;;6.73;;
15816;SDS011;8009;50.070;8.232;2022-10-03T21:46:56;6.73;;;6.17;;
15816;SDS011;8009;50.070;8.232;2022-10-03T21:49:40;7.23;;;6.63;;
15816;SDS011;8009;50.070;8.232;2022-10-03T21:52:35;7.43;;;6.63;;
15816;SDS011;8009;50.070;8.232;2022-10-03T21:55:16;7.03;;;6.43;;
15816;SDS011;8009;50.070;8.232;2022-10-03T21:57:55;6.03;;;5.43;;
15816;SDS011;8009;50.070;8.232;2022-10-03T22:00:47;8.33;;;6.43;;
15816;SDS011;8009;50.070;8.232;2022-10-03T22:03:27;8.30;;;6.47;;